createdAt,value
2022-07-25T00:00:27.438Z,20.80
2022-07-25T00:02:54.373Z,20.80
2022-07-25T00:05:21.660Z,20.70
2022-07-25T00:07:49.297Z,20.70
2022-07-25T00:10:16.867Z,20.70
2022-07-25T00:12:44.045Z,20.60
2022-07-25T00:15:11.755Z,20.50
2022-07-25T00:17:40.442Z,20.50
2022-07-25T00:20:08.931Z,20.50
2022-07-25T00:22:35.960Z,20.50
2022-07-25T00:25:03.039Z,20.40
2022-07-25T00:27:30.083Z,20.40
2022-07-25T00:29:57.031Z,20.40
2022-07-25T00:32:23.982Z,20.30
2022-07-25T00:34:50.914Z,20.30
2022-07-25T00:37:17.810Z,20.30
2022-07-25T00:39:44.786Z,20.30
2022-07-25T00:42:11.688Z,20.40
2022-07-25T00:44:38.684Z,20.20
2022-07-25T00:47:05.833Z,20.20
2022-07-25T00:49:32.875Z,20.20
2022-07-25T00:52:00.384Z,20.20
2022-07-25T00:54:27.326Z,20.10
2022-07-25T00:56:54.335Z,20.10
2022-07-25T00:59:21.232Z,20.10
2022-07-25T01:01:48.623Z,20.10
2022-07-25T01:04:16.898Z,20.00
2022-07-25T01:06:44.529Z,20.00
2022-07-25T01:09:11.633Z,20.00
2022-07-25T01:11:39.161Z,19.90
2022-07-25T01:14:07.174Z,19.90
2022-07-25T01:16:34.567Z,19.90
2022-07-25T01:19:01.693Z,19.80
2022-07-25T01:21:28.970Z,19.80
2022-07-25T01:23:55.926Z,19.70
2022-07-25T01:26:22.834Z,19.80
2022-07-25T01:28:49.823Z,19.60
2022-07-25T01:31:17.755Z,19.60
2022-07-25T01:33:44.806Z,19.60
2022-07-25T01:36:12.030Z,19.50
2022-07-25T01:38:38.932Z,19.50
2022-07-25T01:41:06.297Z,19.40
2022-07-25T01:43:33.509Z,19.30
2022-07-25T01:46:00.670Z,19.20
2022-07-25T01:48:27.768Z,19.10
2022-07-25T01:50:54.775Z,19.00
2022-07-25T01:53:21.937Z,18.90
2022-07-25T01:55:48.975Z,18.90
2022-07-25T01:58:15.935Z,18.90
2022-07-25T02:00:44.580Z,18.80
2022-07-25T02:03:29.868Z,18.80
2022-07-25T02:06:06.460Z,18.80
2022-07-25T02:08:33.783Z,18.80
2022-07-25T02:11:01.136Z,18.80
2022-07-25T02:13:28.351Z,18.80
2022-07-25T02:15:55.539Z,18.80
2022-07-25T02:18:22.520Z,18.80
2022-07-25T02:20:49.478Z,18.80
2022-07-25T02:23:16.380Z,18.90
2022-07-25T02:25:43.480Z,18.90
2022-07-25T02:28:10.658Z,18.80
2022-07-25T02:30:38.254Z,18.80
2022-07-25T02:33:05.465Z,18.80
2022-07-25T02:35:32.358Z,19.30
2022-07-25T02:37:59.312Z,18.60
2022-07-25T02:40:26.437Z,18.60
2022-07-25T02:42:53.385Z,18.50
2022-07-25T02:45:20.448Z,18.50
2022-07-25T02:47:47.402Z,18.50
2022-07-25T02:50:15.009Z,18.50
2022-07-25T02:52:42.977Z,18.40
2022-07-25T02:55:11.441Z,18.40
2022-07-25T02:57:38.433Z,18.30
2022-07-25T03:00:07.312Z,18.20
2022-07-25T03:02:35.970Z,18.10
2022-07-25T03:05:06.694Z,18.00
2022-07-25T03:07:33.730Z,18.00
2022-07-25T03:10:00.815Z,18.10
2022-07-25T03:12:27.777Z,18.00
2022-07-25T03:14:54.697Z,17.90
2022-07-25T03:17:21.591Z,17.80
2022-07-25T03:19:48.515Z,17.70
2022-07-25T03:22:15.422Z,17.70
2022-07-25T03:24:42.338Z,17.70
2022-07-25T03:27:09.656Z,17.70
2022-07-25T03:29:36.652Z,17.60
2022-07-25T03:32:04.363Z,17.60
2022-07-25T03:34:31.402Z,17.50
2022-07-25T03:36:58.339Z,17.50
2022-07-25T03:39:25.248Z,17.50
2022-07-25T03:41:52.980Z,17.50
2022-07-25T03:44:20.689Z,17.90
2022-07-25T03:46:47.707Z,17.50
2022-07-25T03:49:14.996Z,17.50
2022-07-25T03:51:42.520Z,17.50
2022-07-25T03:54:13.611Z,17.60
2022-07-25T03:56:43.849Z,17.60
2022-07-25T03:59:14.702Z,17.60
2022-07-25T04:01:43.303Z,17.50
2022-07-25T04:04:11.011Z,17.50
2022-07-25T04:06:39.736Z,17.40
2022-07-25T04:09:09.202Z,17.50
2022-07-25T04:11:38.187Z,17.50
2022-07-25T04:14:06.136Z,17.50
2022-07-25T04:16:33.389Z,17.50
2022-07-25T04:19:01.652Z,17.50
2022-07-25T04:21:28.753Z,17.60
2022-07-25T04:23:55.751Z,17.60
2022-07-25T04:26:22.633Z,17.60
2022-07-25T04:28:49.669Z,17.60
2022-07-25T04:31:16.952Z,17.40
2022-07-25T04:33:44.158Z,17.50
2022-07-25T04:36:11.092Z,17.50
2022-07-25T04:38:37.967Z,17.50
2022-07-25T04:41:05.359Z,17.50
2022-07-25T04:43:32.351Z,17.60
2022-07-25T04:45:59.740Z,17.70
2022-07-25T04:48:27.121Z,17.70
2022-07-25T04:50:54.272Z,17.80
2022-07-25T04:53:21.234Z,18.00
2022-07-25T04:55:48.447Z,17.70
2022-07-25T04:58:15.606Z,17.70
2022-07-25T05:00:42.749Z,17.60
2022-07-25T05:03:09.771Z,17.60
2022-07-25T05:05:36.906Z,17.70
2022-07-25T05:08:04.257Z,17.70
2022-07-25T05:10:31.324Z,17.80
2022-07-25T05:12:58.369Z,17.70
2022-07-25T05:15:25.445Z,17.80
2022-07-25T05:17:52.700Z,17.80
2022-07-25T05:20:19.710Z,17.80
2022-07-25T05:22:47.082Z,19.20
2022-07-25T05:25:14.131Z,17.90
2022-07-25T05:27:41.685Z,18.30
2022-07-25T05:30:11.972Z,18.00
2022-07-25T05:32:39.783Z,18.10
2022-07-25T05:35:09.062Z,18.20
2022-07-25T05:37:37.315Z,18.20
2022-07-25T05:40:07.405Z,18.20
2022-07-25T05:42:34.897Z,18.30
2022-07-25T05:45:02.176Z,18.30
2022-07-25T05:47:29.180Z,18.30
2022-07-25T05:49:56.268Z,18.30
2022-07-25T05:52:23.313Z,18.40
2022-07-25T05:54:50.592Z,18.50
2022-07-25T05:57:17.580Z,18.50
2022-07-25T05:59:44.649Z,18.60
2022-07-25T06:02:11.729Z,18.60
2022-07-25T06:04:38.740Z,18.70
2022-07-25T06:07:05.708Z,18.70
2022-07-25T06:09:33.072Z,18.80
2022-07-25T06:12:01.382Z,18.90
2022-07-25T06:14:29.787Z,19.30
2022-07-25T06:16:57.391Z,19.00
2022-07-25T06:19:24.540Z,19.10
2022-07-25T06:21:51.549Z,19.20
2022-07-25T06:24:18.625Z,19.20
2022-07-25T06:26:45.633Z,19.30
2022-07-25T06:29:12.657Z,19.40
2022-07-25T06:31:39.847Z,19.40
2022-07-25T06:34:07.453Z,19.50
2022-07-25T06:36:35.126Z,19.50
2022-07-25T06:39:02.649Z,19.60
2022-07-25T06:41:29.649Z,19.70
2022-07-25T06:43:56.547Z,19.70
2022-07-25T06:46:23.609Z,19.80
2022-07-25T06:48:50.827Z,19.90
2022-07-25T06:51:17.894Z,19.90
2022-07-25T06:53:44.859Z,20.50
2022-07-25T06:56:17.505Z,20.10
2022-07-25T06:58:45.638Z,20.00
2022-07-25T07:01:12.899Z,20.20
2022-07-25T07:03:40.732Z,20.30
2022-07-25T07:06:09.529Z,20.40
2022-07-25T07:08:36.558Z,20.50
2022-07-25T07:11:04.228Z,20.50
2022-07-25T07:13:31.308Z,20.60
2022-07-25T07:15:58.465Z,20.70
2022-07-25T07:18:25.932Z,20.80
2022-07-25T07:20:53.605Z,20.80
2022-07-25T07:23:20.700Z,20.90
2022-07-25T07:25:47.823Z,20.90
2022-07-25T07:28:15.780Z,21.10
2022-07-25T07:33:30.719Z,21.20
2022-07-25T07:35:57.831Z,21.30
2022-07-25T07:38:25.852Z,21.40
2022-07-25T07:40:53.758Z,21.50
2022-07-25T07:43:21.300Z,21.60
2022-07-25T07:45:49.303Z,21.70
2022-07-25T07:48:16.215Z,21.70
2022-07-25T07:50:43.169Z,21.80
2022-07-25T07:53:10.163Z,21.90
2022-07-25T07:55:48.181Z,22.00
2022-07-25T07:58:18.855Z,22.00
2022-07-25T08:00:49.398Z,22.10
2022-07-25T08:03:21.206Z,22.20
2022-07-25T08:05:49.261Z,22.20
2022-07-25T08:08:16.677Z,22.40
2022-07-25T08:10:48.753Z,22.50
2022-07-25T08:13:30.886Z,22.60
2022-07-25T08:16:00.908Z,22.60
2022-07-25T08:18:30.089Z,22.60
2022-07-25T08:20:57.888Z,22.80
2022-07-25T08:23:28.036Z,22.90
2022-07-25T08:25:55.253Z,22.90
2022-07-25T08:28:22.263Z,23.00
2022-07-25T08:30:49.321Z,23.10
2022-07-25T08:33:16.540Z,23.20
2022-07-25T08:35:54.951Z,23.30
2022-07-25T08:38:25.077Z,23.40
2022-07-25T08:40:54.517Z,23.40
2022-07-25T08:43:21.526Z,23.50
2022-07-25T08:45:52.397Z,23.50
2022-07-25T08:48:25.505Z,23.60
2022-07-25T08:50:54.478Z,23.70
2022-07-25T08:53:37.911Z,23.80
2022-07-25T08:56:16.025Z,23.80
2022-07-25T08:58:44.837Z,24.00
2022-07-25T09:01:13.384Z,24.10
2022-07-25T09:03:42.514Z,24.10
2022-07-25T09:06:21.616Z,24.20
2022-07-25T09:08:58.201Z,24.30
2022-07-25T09:11:38.176Z,24.40
2022-07-25T09:14:10.341Z,24.50
2022-07-25T09:16:44.463Z,24.60
2022-07-25T09:19:18.554Z,24.70
2022-07-25T09:22:02.877Z,24.70
2022-07-25T09:24:32.599Z,24.80
2022-07-25T09:27:08.566Z,24.90
2022-07-25T09:29:38.275Z,24.90
2022-07-25T09:32:20.903Z,24.90
2022-07-25T09:34:50.090Z,25.00
2022-07-25T09:37:24.397Z,25.10
2022-07-25T09:39:52.200Z,25.20
2022-07-25T09:42:36.388Z,25.30
2022-07-25T09:45:06.338Z,25.40
2022-07-25T09:47:36.827Z,25.40
2022-07-25T09:50:06.196Z,25.40
2022-07-25T09:52:36.114Z,25.50
2022-07-25T09:55:06.614Z,25.60
2022-07-25T09:57:33.849Z,25.70
2022-07-25T10:00:01.760Z,25.80
2022-07-25T10:03:06.617Z,25.90
2022-07-25T10:06:14.158Z,26.00
2022-07-25T10:08:41.940Z,26.10
2022-07-25T10:11:24.500Z,26.20
2022-07-25T10:13:53.236Z,26.40
2022-07-25T10:16:24.128Z,26.50
2022-07-25T10:18:56.824Z,26.60
2022-07-25T10:21:27.627Z,26.80
2022-07-25T10:24:08.849Z,26.90
2022-07-25T10:26:40.086Z,27.00
2022-07-25T10:29:12.795Z,27.20
2022-07-25T10:31:51.037Z,27.40
2022-07-25T10:34:30.960Z,27.60
2022-07-25T10:37:10.352Z,27.80
2022-07-25T10:39:44.753Z,28.10
2022-07-25T10:42:17.798Z,28.10
2022-07-25T10:44:48.791Z,28.20
2022-07-25T10:47:17.419Z,28.30
2022-07-25T10:50:15.116Z,28.50
2022-07-25T10:52:46.122Z,28.70
2022-07-25T10:55:23.879Z,29.00
2022-07-25T10:58:17.204Z,29.40
2022-07-25T11:00:45.193Z,29.70
2022-07-25T11:03:17.917Z,30.00
2022-07-25T11:05:49.569Z,30.10
2022-07-25T11:08:22.067Z,30.30
2022-07-25T11:10:53.504Z,30.50
2022-07-25T11:13:20.805Z,30.70
2022-07-25T11:15:48.217Z,30.90
2022-07-25T11:18:15.381Z,31.10
2022-07-25T11:20:42.444Z,31.30
2022-07-25T11:23:09.455Z,31.50
2022-07-25T11:25:36.630Z,31.90
2022-07-25T11:28:03.957Z,32.10
2022-07-25T11:30:31.157Z,32.30
2022-07-25T11:33:01.672Z,32.70
2022-07-25T11:35:33.461Z,33.10
2022-07-25T11:38:02.562Z,33.30
2022-07-25T11:40:31.457Z,33.50
2022-07-25T11:42:59.755Z,33.70
2022-07-25T11:45:29.672Z,33.90
2022-07-25T11:48:13.752Z,34.10
2022-07-25T11:50:44.136Z,34.20
2022-07-25T11:53:14.757Z,34.30
2022-07-25T11:55:43.240Z,34.50
2022-07-25T11:58:13.054Z,34.70
2022-07-25T12:00:44.358Z,34.90
2022-07-25T12:03:19.895Z,35.10
2022-07-25T12:05:49.345Z,35.30
2022-07-25T12:08:22.958Z,35.40
2022-07-25T12:10:51.675Z,35.70
2022-07-25T12:13:30.381Z,35.90
2022-07-25T12:16:00.443Z,36.10
2022-07-25T12:18:28.106Z,36.40
2022-07-25T12:20:55.308Z,36.60
2022-07-25T12:23:22.390Z,36.70
2022-07-25T12:25:50.151Z,36.90
2022-07-25T12:28:17.352Z,37.00
2022-07-25T12:30:46.633Z,37.00
2022-07-25T12:33:14.103Z,37.10
2022-07-25T12:35:42.609Z,37.10
2022-07-25T12:38:11.234Z,37.00
2022-07-25T12:40:38.464Z,36.90
2022-07-25T12:43:05.641Z,36.70
2022-07-25T12:45:32.703Z,36.60
2022-07-25T12:48:00.031Z,36.60
2022-07-25T12:50:27.078Z,36.40
2022-07-25T12:52:54.232Z,36.20
2022-07-25T12:55:21.785Z,36.00
2022-07-25T12:57:50.069Z,35.80
2022-07-25T13:00:21.497Z,35.60
2022-07-25T13:02:51.975Z,35.50
2022-07-25T13:05:20.317Z,35.40
2022-07-25T13:07:49.208Z,35.30
2022-07-25T13:10:17.916Z,35.30
2022-07-25T13:12:45.639Z,35.30
2022-07-25T13:15:12.620Z,35.30
2022-07-25T13:17:40.487Z,35.40
2022-07-25T13:20:09.300Z,35.40
2022-07-25T13:22:36.445Z,35.30
2022-07-25T13:25:04.290Z,35.10
2022-07-25T13:27:31.211Z,34.80
2022-07-25T13:29:58.310Z,34.60
2022-07-25T13:32:26.719Z,34.50
2022-07-25T13:34:53.874Z,34.40
2022-07-25T13:37:20.831Z,34.40
2022-07-25T13:39:47.884Z,34.50
2022-07-25T13:42:14.899Z,34.40
2022-07-25T13:44:41.878Z,34.50
2022-07-25T13:47:08.939Z,34.50
2022-07-25T13:49:37.036Z,34.50
2022-07-25T13:52:04.542Z,34.50
2022-07-25T13:54:31.805Z,34.60
2022-07-25T13:56:59.375Z,34.80
2022-07-25T13:59:26.287Z,35.00
2022-07-25T14:01:53.301Z,35.20
2022-07-25T14:04:20.435Z,35.40
2022-07-25T14:06:51.916Z,35.80
2022-07-25T14:09:21.063Z,36.20
2022-07-25T14:11:48.998Z,36.70
2022-07-25T14:14:16.217Z,37.20
2022-07-25T14:16:43.532Z,37.60
2022-07-25T14:19:10.855Z,37.90
2022-07-25T14:21:38.075Z,38.00
2022-07-25T14:24:05.421Z,38.00
2022-07-25T14:26:34.912Z,38.00
2022-07-25T14:29:02.371Z,37.90
2022-07-25T14:31:29.542Z,37.90
2022-07-25T14:33:56.523Z,37.90
2022-07-25T14:36:23.660Z,37.80
2022-07-25T14:38:50.659Z,37.80
2022-07-25T14:41:17.675Z,37.80
2022-07-25T14:43:44.755Z,39.80
2022-07-25T14:46:11.764Z,38.10
2022-07-25T14:48:39.629Z,38.30
2022-07-25T14:51:07.553Z,38.50
2022-07-25T14:53:36.140Z,38.80
2022-07-25T14:56:05.814Z,39.20
2022-07-25T14:58:34.065Z,39.50
2022-07-25T15:01:01.471Z,39.80
2022-07-25T15:03:28.555Z,40.10
2022-07-25T15:05:55.857Z,40.40
2022-07-25T15:08:23.307Z,40.80
2022-07-25T15:10:50.434Z,41.10
2022-07-25T15:13:33.199Z,41.30
2022-07-25T15:16:01.437Z,41.40
2022-07-25T15:18:29.365Z,41.60
2022-07-25T15:20:56.642Z,41.70
2022-07-25T15:23:25.078Z,41.80
2022-07-25T15:26:03.170Z,41.80
2022-07-25T15:28:36.887Z,41.70
2022-07-25T15:31:06.216Z,41.60
2022-07-25T15:33:33.872Z,41.20
2022-07-25T15:36:01.295Z,40.90
2022-07-25T15:38:31.845Z,41.00
2022-07-25T15:40:59.048Z,41.00
2022-07-25T15:43:26.327Z,41.20
2022-07-25T15:45:53.303Z,41.00
2022-07-25T15:48:20.493Z,41.10
2022-07-25T15:50:51.692Z,41.10
2022-07-25T15:53:18.962Z,41.20
2022-07-25T15:55:45.944Z,41.20
2022-07-25T15:58:13.184Z,41.20
2022-07-25T16:00:41.282Z,41.20
2022-07-25T16:03:09.166Z,41.00
2022-07-25T16:05:38.221Z,41.00
2022-07-25T16:08:08.165Z,40.90
2022-07-25T16:10:35.955Z,40.90
2022-07-25T16:13:03.453Z,40.90
2022-07-25T16:15:30.500Z,40.90
2022-07-25T16:18:02.355Z,40.60
2022-07-25T16:20:32.228Z,40.60
2022-07-25T16:23:00.393Z,40.60
2022-07-25T16:25:28.561Z,40.60
2022-07-25T16:27:56.674Z,40.60
2022-07-25T16:30:25.097Z,40.60
2022-07-25T16:32:52.218Z,40.50
2022-07-25T16:35:19.806Z,40.50
2022-07-25T16:37:46.904Z,40.60
2022-07-25T16:40:14.407Z,40.60
2022-07-25T16:42:41.600Z,40.60
2022-07-25T16:45:10.158Z,40.50
2022-07-25T16:47:39.522Z,40.40
2022-07-25T16:50:06.858Z,40.10
2022-07-25T16:52:33.751Z,39.60
2022-07-25T16:55:00.682Z,39.20
2022-07-25T16:57:27.661Z,38.70
2022-07-25T16:59:54.645Z,38.20
2022-07-25T17:02:27.527Z,37.80
2022-07-25T17:04:56.398Z,37.20
2022-07-25T17:07:23.854Z,36.70
2022-07-25T17:09:51.011Z,36.10
2022-07-25T17:12:18.913Z,35.70
2022-07-25T17:14:46.382Z,35.20
2022-07-25T17:17:13.751Z,34.90
2022-07-25T17:19:41.000Z,34.50
2022-07-25T17:22:11.725Z,34.20
2022-07-25T17:24:39.666Z,33.90
2022-07-25T17:27:08.255Z,33.60
2022-07-25T17:29:36.005Z,33.30
2022-07-25T17:32:05.886Z,33.10
2022-07-25T17:34:32.997Z,32.90
2022-07-25T17:37:02.848Z,32.80
2022-07-25T17:39:34.261Z,32.60
2022-07-25T17:42:01.729Z,32.50
2022-07-25T17:44:28.684Z,32.30
2022-07-25T17:46:56.153Z,32.10
2022-07-25T17:49:23.182Z,31.90
2022-07-25T17:51:50.227Z,31.70
2022-07-25T17:54:17.700Z,31.60
2022-07-25T17:56:45.517Z,31.40
2022-07-25T17:59:13.719Z,31.30
2022-07-25T18:01:41.030Z,31.10
2022-07-25T18:04:08.638Z,30.90
2022-07-25T18:06:36.025Z,30.70
2022-07-25T18:09:03.226Z,30.60
2022-07-25T18:11:30.277Z,30.40
2022-07-25T18:13:59.373Z,30.20
2022-07-25T18:16:26.684Z,30.10
2022-07-25T18:18:53.836Z,30.00
2022-07-25T18:21:20.832Z,29.90
2022-07-25T18:23:47.748Z,29.70
2022-07-25T18:26:14.891Z,29.60
2022-07-25T18:28:41.902Z,29.50
2022-07-25T18:31:09.979Z,29.30
2022-07-25T18:33:37.256Z,29.20
2022-07-25T18:36:07.639Z,29.10
2022-07-25T18:38:36.148Z,28.90
2022-07-25T18:41:27.406Z,28.70
2022-07-25T18:43:52.180Z,28.60
2022-07-25T18:46:20.076Z,28.50
2022-07-25T18:48:47.759Z,28.40
2022-07-25T18:51:15.038Z,28.30
2022-07-25T18:53:45.985Z,28.10
2022-07-25T18:56:15.056Z,28.00
2022-07-25T18:58:42.099Z,27.90
2022-07-25T19:01:09.692Z,27.80
2022-07-25T19:03:37.626Z,27.70
2022-07-25T19:06:05.273Z,27.60
2022-07-25T19:08:33.103Z,27.50
2022-07-25T19:11:00.371Z,27.50
2022-07-25T19:13:48.259Z,27.40
2022-07-25T19:16:14.477Z,27.30
2022-07-25T19:18:42.058Z,27.20
2022-07-25T19:21:09.004Z,27.10
2022-07-25T19:23:35.992Z,27.10
2022-07-25T19:26:04.031Z,27.00
2022-07-25T19:28:31.035Z,26.90
2022-07-25T19:30:58.165Z,26.80
2022-07-25T19:33:25.544Z,26.60
2022-07-25T19:36:01.885Z,26.50
2022-07-25T19:38:28.846Z,26.50
2022-07-25T19:40:55.793Z,26.40
2022-07-25T19:43:22.774Z,25.60
2022-07-25T19:45:49.854Z,26.20
2022-07-25T19:48:17.388Z,26.20
2022-07-25T19:50:45.654Z,26.10
2022-07-25T19:53:12.716Z,26.10
2022-07-25T19:55:39.661Z,26.00
2022-07-25T19:58:08.416Z,25.90
2022-07-25T20:00:35.478Z,25.80
2022-07-25T20:03:02.683Z,25.70
2022-07-25T20:05:29.726Z,25.60
2022-07-25T20:07:56.749Z,25.60
2022-07-25T20:10:24.293Z,25.50
2022-07-25T20:12:51.662Z,25.40
2022-07-25T20:15:18.721Z,25.40
2022-07-25T20:17:45.663Z,25.30
2022-07-25T20:20:12.709Z,25.30
2022-07-25T20:22:39.766Z,25.30
2022-07-25T20:25:10.772Z,25.20
2022-07-25T20:27:38.407Z,25.20
2022-07-25T20:30:08.655Z,25.20
2022-07-25T20:32:36.121Z,25.20
2022-07-25T20:35:03.791Z,25.10
2022-07-25T20:37:30.796Z,25.10
2022-07-25T20:39:58.971Z,25.10
2022-07-25T20:42:26.059Z,25.10
2022-07-25T20:44:53.083Z,25.10
2022-07-25T20:47:20.121Z,25.00
2022-07-25T20:49:47.071Z,25.00
2022-07-25T20:52:14.055Z,24.90
2022-07-25T20:54:42.894Z,24.80
2022-07-25T20:57:11.532Z,24.70
2022-07-25T20:59:38.587Z,24.70
2022-07-25T21:02:05.963Z,24.60
2022-07-25T21:04:33.032Z,24.50
2022-07-25T21:07:00.198Z,24.50
2022-07-25T21:09:30.949Z,24.40
2022-07-25T21:12:01.089Z,24.30
2022-07-25T21:14:28.496Z,24.30
2022-07-25T21:16:56.736Z,24.30
2022-07-25T21:19:24.425Z,24.20
2022-07-25T21:21:51.460Z,24.10
2022-07-25T21:24:18.521Z,24.00
2022-07-25T21:26:45.534Z,24.00
2022-07-25T21:29:12.868Z,23.80
2022-07-25T21:31:40.031Z,23.70
2022-07-25T21:34:07.077Z,23.70
2022-07-25T21:36:34.984Z,23.70
2022-07-25T21:39:02.096Z,23.70
2022-07-25T21:41:29.181Z,23.60
2022-07-25T21:43:57.292Z,23.50
2022-07-25T21:46:24.299Z,23.50
2022-07-25T21:49:10.479Z,23.50
2022-07-25T21:51:40.389Z,23.40
2022-07-25T21:54:08.408Z,23.50
2022-07-25T21:56:35.458Z,23.40
2022-07-25T21:59:02.409Z,23.40
2022-07-25T22:01:29.798Z,23.40
2022-07-25T22:03:56.980Z,23.40
2022-07-25T22:06:23.998Z,23.30
2022-07-25T22:08:51.047Z,23.30
2022-07-25T22:11:38.873Z,23.20
2022-07-25T22:14:05.234Z,23.20
2022-07-25T22:16:32.235Z,23.10
2022-07-25T22:18:59.723Z,23.10
2022-07-25T22:21:26.977Z,23.10
2022-07-25T22:23:53.886Z,23.00
2022-07-25T22:26:21.509Z,23.00
2022-07-25T22:28:48.959Z,23.00
2022-07-25T22:31:17.817Z,22.90
2022-07-25T22:33:44.927Z,22.90
2022-07-25T22:36:11.997Z,22.80
2022-07-25T22:38:38.969Z,22.70
2022-07-25T22:41:06.286Z,22.60
2022-07-25T22:43:57.223Z,22.60
2022-07-25T22:46:20.233Z,22.60
2022-07-25T22:48:47.230Z,22.50
2022-07-25T22:51:14.207Z,22.40
2022-07-25T22:53:41.181Z,22.30
2022-07-25T22:56:08.233Z,22.20
2022-07-25T22:58:35.198Z,22.20
2022-07-25T23:01:02.203Z,22.10
2022-07-25T23:03:30.591Z,22.10
2022-07-25T23:05:59.248Z,22.10
2022-07-25T23:08:26.137Z,22.00
2022-07-25T23:10:53.239Z,22.00
2022-07-25T23:13:20.288Z,21.90
2022-07-25T23:15:49.776Z,21.90
2022-07-25T23:18:19.086Z,21.80
2022-07-25T23:20:46.299Z,21.80
2022-07-25T23:23:13.679Z,21.80
2022-07-25T23:25:40.889Z,21.70
2022-07-25T23:28:07.856Z,21.60
2022-07-25T23:30:40.039Z,21.60
2022-07-25T23:33:08.332Z,21.60
2022-07-25T23:35:35.901Z,21.70
2022-07-25T23:38:03.750Z,21.60
2022-07-25T23:40:31.084Z,21.60
2022-07-25T23:42:58.117Z,21.60
2022-07-25T23:45:27.812Z,21.60
2022-07-25T23:47:56.513Z,21.70
2022-07-25T23:50:24.324Z,21.70
2022-07-25T23:52:51.656Z,21.70
2022-07-25T23:55:18.678Z,21.70
2022-07-25T23:57:45.672Z,21.70
